createdAt,value
2023-05-04T00:02:12.442Z,11.38
2023-05-04T00:04:42.754Z,15.70
2023-05-04T00:07:12.305Z,14.05
2023-05-04T00:09:40.023Z,14.77
2023-05-04T00:12:08.067Z,36.15
2023-05-04T00:14:36.667Z,15.75
2023-05-04T00:17:06.441Z,12.65
2023-05-04T00:19:34.194Z,17.40
2023-05-04T00:22:01.910Z,13.68
2023-05-04T00:24:30.890Z,19.90
2023-05-04T00:27:00.690Z,18.55
2023-05-04T00:29:28.545Z,15.77
2023-05-04T00:31:56.442Z,16.80
2023-05-04T00:34:24.512Z,11.27
2023-05-04T00:36:52.187Z,17.80
2023-05-04T00:39:19.849Z,9.90
2023-05-04T00:41:48.816Z,11.27
2023-05-04T00:44:17.157Z,12.70
2023-05-04T00:46:44.894Z,13.13
2023-05-04T00:49:12.681Z,10.48
2023-05-04T00:51:41.412Z,14.88
2023-05-04T00:54:09.739Z,14.63
2023-05-04T00:56:42.331Z,15.52
2023-05-04T00:59:11.272Z,10.95
2023-05-04T01:01:38.939Z,9.73
2023-05-04T01:04:06.829Z,11.30
2023-05-04T01:06:41.534Z,11.23
2023-05-04T01:09:23.519Z,12.17
2023-05-04T01:11:54.775Z,15.65
2023-05-04T01:14:23.890Z,8.35
2023-05-04T01:16:54.088Z,10.60
2023-05-04T01:19:21.818Z,13.93
2023-05-04T01:21:50.792Z,12.18
2023-05-04T01:24:19.066Z,14.35
2023-05-04T01:26:48.020Z,11.90
2023-05-04T01:29:17.615Z,14.65
2023-05-04T01:31:46.484Z,10.02
2023-05-04T01:34:14.890Z,10.43
2023-05-04T01:36:42.782Z,14.70
2023-05-04T01:39:11.887Z,13.68
2023-05-04T01:41:39.665Z,11.35
2023-05-04T01:44:07.345Z,15.32
2023-05-04T01:46:35.160Z,10.98
2023-05-04T01:49:02.832Z,16.55
2023-05-04T01:51:30.429Z,10.77
2023-05-04T01:53:58.377Z,12.25
2023-05-04T01:56:27.379Z,12.25
2023-05-04T01:58:54.978Z,11.32
2023-05-04T02:01:22.763Z,16.42
2023-05-04T02:03:50.582Z,14.05
2023-05-04T02:06:18.281Z,15.70
2023-05-04T02:08:46.385Z,11.07
2023-05-04T02:11:14.725Z,11.30
2023-05-04T02:13:44.583Z,9.90
2023-05-04T02:16:12.548Z,17.23
2023-05-04T02:18:40.352Z,10.48
2023-05-04T02:21:07.965Z,11.98
2023-05-04T02:23:35.597Z,13.32
2023-05-04T02:26:03.223Z,14.75
2023-05-04T02:28:30.877Z,11.93
2023-05-04T02:30:59.879Z,13.02
2023-05-04T02:33:27.697Z,10.85
2023-05-04T02:35:55.390Z,19.17
2023-05-04T02:38:23.070Z,10.80
2023-05-04T02:40:50.670Z,10.63
2023-05-04T02:43:19.023Z,9.80
2023-05-04T02:45:46.669Z,11.50
2023-05-04T02:48:18.429Z,11.43
2023-05-04T02:50:46.521Z,9.07
2023-05-04T02:53:20.298Z,11.73
2023-05-04T02:55:47.933Z,19.40
2023-05-04T02:58:16.704Z,8.55
2023-05-04T03:00:44.293Z,12.48
2023-05-04T03:03:12.526Z,9.98
2023-05-04T03:05:41.533Z,11.75
2023-05-04T03:08:09.309Z,16.83
2023-05-04T03:10:37.002Z,14.63
2023-05-04T03:13:06.244Z,9.50
2023-05-04T03:15:34.246Z,13.65
2023-05-04T03:18:01.989Z,12.98
2023-05-04T03:20:29.686Z,10.52
2023-05-04T03:22:58.691Z,10.10
2023-05-04T03:25:26.447Z,14.02
2023-05-04T03:27:54.080Z,9.73
2023-05-04T03:30:21.795Z,12.90
2023-05-04T03:32:49.607Z,10.85
2023-05-04T03:35:24.358Z,10.88
2023-05-04T03:40:24.184Z,8.55
2023-05-04T03:42:52.604Z,13.35
2023-05-04T03:45:20.558Z,11.27
2023-05-04T03:47:48.182Z,10.00
2023-05-04T03:50:15.837Z,8.82
2023-05-04T03:52:43.518Z,13.77
2023-05-04T03:55:11.574Z,11.88
2023-05-04T03:57:41.399Z,15.07
2023-05-04T04:00:09.574Z,14.80
2023-05-04T04:02:37.365Z,10.88
2023-05-04T04:05:06.581Z,13.70
2023-05-04T04:07:34.305Z,10.20
2023-05-04T04:10:02.008Z,10.85
2023-05-04T04:12:29.802Z,12.05
2023-05-04T04:14:58.926Z,11.60
2023-05-04T04:17:26.999Z,11.32
2023-05-04T04:19:54.659Z,12.18
2023-05-04T04:22:22.396Z,13.45
2023-05-04T04:24:50.796Z,11.52
2023-05-04T04:27:18.691Z,13.30
2023-05-04T04:29:46.438Z,15.07
2023-05-04T04:32:15.704Z,11.93
2023-05-04T04:34:43.541Z,12.25
2023-05-04T04:37:11.962Z,10.63
2023-05-04T04:39:39.900Z,10.77
2023-05-04T04:42:08.093Z,10.32
2023-05-04T04:44:36.010Z,10.77
2023-05-04T04:47:04.060Z,13.93
2023-05-04T04:49:33.191Z,12.65
2023-05-04T04:52:02.115Z,10.85
2023-05-04T04:54:29.987Z,13.35
2023-05-04T04:56:57.698Z,12.77
2023-05-04T04:59:25.669Z,11.15
2023-05-04T05:01:53.533Z,11.70
2023-05-04T05:04:22.443Z,15.32
2023-05-04T05:06:51.667Z,9.60
2023-05-04T05:09:19.330Z,13.30
2023-05-04T05:11:46.968Z,14.07
2023-05-04T05:14:14.574Z,15.88
2023-05-04T05:16:42.258Z,9.60
2023-05-04T05:19:10.203Z,12.18
2023-05-04T05:21:37.840Z,13.45
2023-05-04T05:24:07.062Z,14.77
2023-05-04T05:26:34.867Z,11.20
2023-05-04T05:29:02.609Z,13.93
2023-05-04T05:31:30.329Z,11.88
2023-05-04T05:33:58.800Z,13.30
2023-05-04T05:36:26.400Z,9.48
2023-05-04T05:38:54.130Z,10.18
2023-05-04T05:41:24.110Z,11.50
2023-05-04T05:43:51.711Z,9.23
2023-05-04T05:46:19.430Z,11.73
2023-05-04T05:48:47.682Z,13.32
2023-05-04T05:51:15.306Z,15.52
2023-05-04T05:53:43.415Z,12.43
2023-05-04T05:56:11.316Z,11.43
2023-05-04T05:58:40.746Z,13.75
2023-05-04T06:01:08.445Z,12.15
2023-05-04T06:03:36.300Z,9.52
2023-05-04T06:06:04.794Z,11.93
2023-05-04T06:09:08.224Z,12.13
2023-05-04T06:11:35.841Z,11.73
2023-05-04T06:14:04.936Z,12.25
2023-05-04T06:16:32.894Z,15.10
2023-05-04T06:19:00.921Z,13.55
2023-05-04T06:21:28.568Z,13.77
2023-05-04T06:23:56.201Z,13.70
2023-05-04T06:26:24.113Z,13.90
2023-05-04T06:28:53.306Z,10.98
2023-05-04T06:31:24.174Z,13.73
2023-05-04T06:33:51.896Z,12.18
2023-05-04T06:36:19.708Z,10.20
2023-05-04T06:38:47.362Z,18.90
2023-05-04T06:41:14.958Z,13.38
2023-05-04T06:43:43.904Z,17.08
2023-05-04T06:46:11.752Z,13.57
2023-05-04T06:48:41.268Z,16.20
2023-05-04T06:51:09.388Z,12.25
2023-05-04T06:53:37.300Z,13.18
2023-05-04T06:56:05.200Z,12.23
2023-05-04T06:58:32.928Z,10.35
2023-05-04T07:01:00.628Z,11.70
2023-05-04T07:03:28.408Z,12.45
2023-05-04T07:05:57.780Z,13.65
2023-05-04T07:08:25.441Z,10.90
2023-05-04T07:10:53.292Z,12.68
2023-05-04T07:13:20.950Z,13.48
2023-05-04T07:15:48.631Z,11.77
2023-05-04T07:18:16.282Z,9.38
2023-05-04T07:20:43.989Z,11.02
2023-05-04T07:23:13.093Z,12.10
2023-05-04T07:25:40.795Z,12.48
2023-05-04T07:28:08.482Z,12.85
2023-05-04T07:30:36.126Z,10.88
2023-05-04T07:33:04.044Z,14.40
2023-05-04T07:35:31.828Z,17.60
2023-05-04T07:37:59.435Z,14.20
2023-05-04T07:40:28.440Z,9.10
2023-05-04T07:42:56.448Z,14.23
2023-05-04T07:45:24.089Z,12.38
2023-05-04T07:47:53.127Z,9.80
2023-05-04T07:50:20.959Z,11.95
2023-05-04T07:52:49.441Z,11.82
2023-05-04T07:55:17.151Z,9.45
2023-05-04T07:57:46.142Z,12.65
2023-05-04T08:00:14.836Z,10.18
2023-05-04T08:02:42.538Z,12.05
2023-05-04T08:05:10.720Z,9.95
2023-05-04T08:07:38.349Z,9.77
2023-05-04T08:10:06.465Z,15.18
2023-05-04T08:12:34.877Z,10.82
2023-05-04T08:15:04.887Z,10.25
2023-05-04T08:17:34.734Z,9.20
2023-05-04T08:20:02.844Z,9.20
2023-05-04T08:22:30.491Z,8.60
2023-05-04T08:24:58.132Z,10.20
2023-05-04T08:27:25.801Z,11.35
2023-05-04T08:29:53.543Z,8.27
2023-05-04T08:32:22.666Z,10.88
2023-05-04T08:34:50.690Z,10.70
2023-05-04T08:37:18.340Z,8.50
2023-05-04T08:39:46.337Z,8.07
2023-05-04T08:42:13.995Z,9.77
2023-05-04T08:44:43.944Z,9.85
2023-05-04T08:47:12.358Z,10.57
2023-05-04T08:49:41.360Z,8.00
2023-05-04T08:52:10.290Z,10.65
2023-05-04T08:54:39.887Z,8.23
2023-05-04T08:57:08.180Z,7.40
2023-05-04T08:59:38.586Z,8.40
2023-05-04T09:02:06.576Z,8.40
2023-05-04T09:04:38.839Z,8.73
2023-05-04T09:07:07.888Z,11.25
2023-05-04T09:09:35.691Z,9.90
2023-05-04T09:12:03.479Z,7.40
2023-05-04T09:14:35.648Z,7.80
2023-05-04T09:17:03.773Z,10.27
2023-05-04T09:19:34.754Z,8.65
2023-05-04T09:22:02.648Z,11.55
2023-05-04T09:24:33.110Z,7.60
2023-05-04T09:27:10.634Z,9.93
2023-05-04T09:29:40.625Z,7.03
2023-05-04T09:32:12.383Z,8.55
2023-05-04T09:34:47.761Z,7.03
2023-05-04T09:37:15.695Z,9.20
2023-05-04T09:39:55.742Z,8.90
2023-05-04T09:42:24.015Z,8.00
2023-05-04T09:45:03.856Z,7.40
2023-05-04T09:47:35.607Z,9.43
2023-05-04T09:50:13.064Z,9.13
2023-05-04T09:52:41.626Z,9.70
2023-05-04T09:55:12.503Z,10.30
2023-05-04T09:57:41.209Z,9.38
2023-05-04T10:00:09.760Z,8.57
2023-05-04T10:02:37.950Z,8.85
2023-05-04T10:05:07.910Z,7.00
2023-05-04T10:07:35.897Z,7.60
2023-05-04T10:10:03.765Z,7.90
2023-05-04T10:12:32.910Z,6.40
2023-05-04T10:15:01.050Z,9.93
2023-05-04T10:17:34.847Z,6.47
2023-05-04T10:20:18.478Z,8.23
2023-05-04T10:22:54.119Z,8.30
2023-05-04T10:25:37.209Z,8.02
2023-05-04T10:28:10.450Z,6.55
2023-05-04T10:30:40.159Z,7.47
2023-05-04T10:33:07.902Z,10.45
2023-05-04T10:35:35.637Z,8.07
2023-05-04T10:38:04.469Z,5.75
2023-05-04T10:40:38.415Z,9.30
2023-05-04T10:43:07.967Z,7.90
2023-05-04T10:45:36.066Z,6.13
2023-05-04T10:48:05.130Z,7.65
2023-05-04T10:50:44.862Z,7.40
2023-05-04T10:53:12.619Z,8.35
2023-05-04T10:55:40.796Z,7.63
2023-05-04T10:58:11.194Z,7.25
2023-05-04T11:00:39.204Z,7.30
2023-05-04T11:03:08.367Z,6.28
2023-05-04T11:05:43.403Z,6.20
2023-05-04T11:10:38.570Z,7.65
2023-05-04T11:13:08.033Z,5.40
2023-05-04T11:15:46.069Z,7.32
2023-05-04T11:18:14.136Z,6.45
2023-05-04T11:20:42.530Z,9.57
2023-05-04T11:23:10.716Z,6.97
2023-05-04T11:25:38.605Z,10.30
2023-05-04T11:28:06.719Z,7.72
2023-05-04T11:30:35.655Z,7.32
2023-05-04T11:33:11.831Z,6.13
2023-05-04T11:35:39.867Z,7.38
2023-05-04T11:38:08.279Z,6.95
2023-05-04T11:40:36.592Z,7.68
2023-05-04T11:43:04.551Z,5.63
2023-05-04T11:45:33.876Z,5.22
2023-05-04T11:48:24.085Z,7.18
2023-05-04T11:50:52.006Z,5.78
2023-05-04T11:53:21.682Z,6.07
2023-05-04T11:55:49.529Z,5.55
2023-05-04T11:58:24.294Z,6.07
2023-05-04T12:00:56.118Z,6.57
2023-05-04T12:03:32.538Z,8.18
2023-05-04T12:06:07.710Z,9.00
2023-05-04T12:08:38.076Z,7.85
2023-05-04T12:11:16.327Z,5.95
2023-05-04T12:13:44.485Z,6.50
2023-05-04T12:16:12.818Z,6.22
2023-05-04T12:18:42.231Z,6.80
2023-05-04T12:21:10.782Z,7.00
2023-05-04T12:23:38.414Z,8.07
2023-05-04T12:26:06.698Z,5.72
2023-05-04T12:28:34.586Z,6.57
2023-05-04T12:31:02.266Z,9.00
2023-05-04T12:33:30.080Z,6.13
2023-05-04T12:36:00.028Z,7.30
2023-05-04T12:38:27.848Z,12.35
2023-05-04T12:40:55.846Z,5.25
2023-05-04T12:43:24.072Z,5.35
2023-05-04T12:45:51.956Z,5.90
2023-05-04T12:48:20.414Z,4.72
2023-05-04T12:50:48.585Z,6.05
2023-05-04T12:53:18.096Z,6.57
2023-05-04T12:55:46.104Z,6.50
2023-05-04T12:58:13.774Z,4.38
2023-05-04T13:00:48.355Z,6.45
2023-05-04T13:05:49.791Z,10.73
2023-05-04T13:08:19.820Z,9.68
2023-05-04T13:10:48.069Z,9.50
2023-05-04T13:13:17.868Z,4.47
2023-05-04T13:15:45.885Z,3.72
2023-05-04T13:18:13.730Z,3.28
2023-05-04T13:20:41.804Z,22.40
2023-05-04T13:23:09.599Z,5.18
2023-05-04T13:25:38.652Z,8.00
2023-05-04T13:28:06.354Z,5.25
2023-05-04T13:30:34.061Z,3.72
2023-05-04T13:33:03.799Z,3.47
2023-05-04T13:35:35.620Z,3.80
2023-05-04T13:38:03.245Z,7.00
2023-05-04T13:40:30.890Z,6.10
2023-05-04T13:42:59.988Z,3.13
2023-05-04T13:45:27.817Z,3.55
2023-05-04T13:47:55.502Z,4.70
2023-05-04T13:50:23.310Z,4.10
2023-05-04T13:52:50.846Z,3.65
2023-05-04T13:55:19.886Z,4.20
2023-05-04T13:57:47.929Z,3.33
2023-05-04T14:00:20.871Z,4.93
2023-05-04T14:02:48.642Z,3.92
2023-05-04T14:05:17.393Z,3.05
2023-05-04T14:07:45.134Z,4.75
2023-05-04T14:10:13.095Z,2.35
2023-05-04T14:12:40.801Z,3.92
2023-05-04T14:15:09.087Z,3.63
2023-05-04T14:17:39.691Z,3.95
2023-05-04T14:20:08.863Z,4.50
2023-05-04T14:22:38.005Z,3.00
2023-05-04T14:25:06.659Z,6.03
2023-05-04T14:27:35.469Z,2.67
2023-05-04T14:30:03.158Z,4.32
2023-05-04T14:32:30.892Z,4.03
2023-05-04T14:35:06.752Z,2.92
2023-05-04T14:37:35.973Z,6.15
2023-05-04T14:40:04.340Z,3.35
2023-05-04T14:42:32.466Z,4.90
2023-05-04T14:45:00.541Z,3.30
2023-05-04T14:47:29.718Z,3.28
2023-05-04T14:49:58.437Z,3.75
2023-05-04T14:52:27.491Z,5.47
2023-05-04T14:54:55.139Z,3.10
2023-05-04T14:57:23.402Z,4.03
2023-05-04T14:59:51.212Z,3.08
2023-05-04T15:02:19.363Z,3.30
2023-05-04T15:04:47.409Z,2.70
2023-05-04T15:07:16.485Z,2.33
2023-05-04T15:09:45.499Z,2.53
2023-05-04T15:12:13.179Z,2.83
2023-05-04T15:14:40.778Z,3.03
2023-05-04T15:17:08.446Z,2.97
2023-05-04T15:19:37.585Z,5.63
2023-05-04T15:22:05.384Z,4.28
2023-05-04T15:24:33.319Z,3.38
2023-05-04T15:27:03.767Z,2.28
2023-05-04T15:29:33.530Z,3.53
2023-05-04T15:32:01.274Z,3.60
2023-05-04T15:34:28.977Z,3.83
2023-05-04T15:36:56.972Z,4.10
2023-05-04T15:39:27.047Z,3.35
2023-05-04T15:41:54.677Z,2.97
2023-05-04T15:44:24.254Z,5.03
2023-05-04T15:46:52.008Z,3.20
2023-05-04T15:49:19.645Z,3.65
2023-05-04T15:51:47.417Z,5.47
2023-05-04T15:54:15.093Z,2.70
2023-05-04T15:56:42.848Z,3.45
2023-05-04T15:59:10.470Z,6.22
2023-05-04T16:01:40.113Z,3.83
2023-05-04T16:04:08.051Z,7.57
2023-05-04T16:06:35.771Z,5.00
2023-05-04T16:09:04.150Z,3.42
2023-05-04T16:11:33.124Z,3.90
2023-05-04T16:14:01.135Z,6.57
2023-05-04T16:16:51.836Z,5.43
2023-05-04T16:19:23.510Z,5.30
2023-05-04T16:21:51.215Z,3.42
2023-05-04T16:24:18.848Z,3.78
2023-05-04T16:26:49.795Z,4.05
2023-05-04T16:29:17.669Z,3.63
2023-05-04T16:31:47.383Z,4.65
2023-05-04T16:34:14.983Z,4.88
2023-05-04T16:36:51.909Z,4.78
2023-05-04T16:39:23.699Z,4.25
2023-05-04T16:41:51.638Z,5.63
2023-05-04T16:44:19.287Z,5.35
2023-05-04T16:46:47.065Z,5.25
2023-05-04T16:49:14.999Z,3.88
2023-05-04T16:51:42.860Z,4.15
2023-05-04T16:54:11.908Z,7.07
2023-05-04T16:56:40.223Z,3.50
2023-05-04T16:59:07.837Z,6.25
2023-05-04T17:01:36.163Z,5.45
2023-05-04T17:04:04.159Z,4.88
2023-05-04T17:06:32.223Z,4.25
2023-05-04T17:08:59.999Z,5.60
2023-05-04T17:11:29.238Z,4.78
2023-05-04T17:13:57.070Z,5.80
2023-05-04T17:16:24.916Z,4.63
2023-05-04T17:18:52.632Z,5.88
2023-05-04T17:21:20.663Z,5.00
2023-05-04T17:23:51.095Z,4.28
2023-05-04T17:26:18.777Z,6.90
2023-05-04T17:28:47.927Z,3.85
2023-05-04T17:31:16.615Z,4.00
2023-05-04T17:33:44.392Z,4.53
2023-05-04T17:36:13.208Z,5.10
2023-05-04T17:38:41.231Z,5.47
2023-05-04T17:41:09.830Z,6.93
2023-05-04T17:43:37.731Z,4.65
2023-05-04T17:46:23.657Z,3.22
2023-05-04T17:48:53.808Z,8.07
2023-05-04T17:51:24.763Z,6.38
2023-05-04T17:53:52.406Z,3.83
2023-05-04T17:56:21.322Z,7.40
2023-05-04T17:58:48.939Z,3.40
2023-05-04T18:01:16.997Z,6.00
2023-05-04T18:03:44.867Z,7.78
2023-05-04T18:06:14.088Z,5.63
2023-05-04T18:08:41.862Z,5.53
2023-05-04T18:11:09.539Z,5.40
2023-05-04T18:13:37.511Z,4.90
2023-05-04T18:16:05.555Z,5.13
2023-05-04T18:18:33.593Z,6.47
2023-05-04T18:21:01.583Z,5.65
2023-05-04T18:23:43.318Z,4.38
2023-05-04T18:26:11.240Z,5.43
2023-05-04T18:28:38.898Z,5.13
2023-05-04T18:31:06.852Z,5.28
2023-05-04T18:33:34.903Z,6.65
2023-05-04T18:36:02.637Z,4.90
2023-05-04T18:38:31.717Z,4.65
2023-05-04T18:40:59.341Z,7.38
2023-05-04T18:43:26.967Z,5.40
2023-05-04T18:45:55.062Z,6.70
2023-05-04T18:48:23.082Z,6.70
2023-05-04T18:50:57.148Z,7.78
2023-05-04T18:53:25.004Z,5.53
2023-05-04T18:56:06.184Z,6.32
2023-05-04T18:58:34.269Z,6.90
2023-05-04T19:01:02.042Z,8.68
2023-05-04T19:03:29.879Z,5.78
2023-05-04T19:06:00.336Z,6.80
2023-05-04T19:08:28.824Z,7.85
2023-05-04T19:10:58.543Z,9.93
2023-05-04T19:13:27.566Z,8.43
2023-05-04T19:15:55.883Z,9.18
2023-05-04T19:18:24.614Z,8.25
2023-05-04T19:20:52.421Z,7.63
2023-05-04T19:23:20.478Z,8.60
2023-05-04T19:25:48.140Z,11.90
2023-05-04T19:28:16.121Z,9.73
2023-05-04T19:30:45.085Z,12.25
2023-05-04T19:33:12.840Z,10.88
2023-05-04T19:35:40.584Z,13.52
2023-05-04T19:38:08.570Z,11.27
2023-05-04T19:40:42.764Z,10.77
2023-05-04T19:43:10.602Z,11.63
2023-05-04T19:45:39.210Z,11.77
2023-05-04T19:48:08.286Z,13.77
2023-05-04T19:50:35.919Z,11.13
2023-05-04T19:53:04.128Z,11.65
2023-05-04T19:55:32.556Z,11.40
2023-05-04T19:58:00.370Z,10.40
2023-05-04T20:00:28.052Z,10.95
2023-05-04T20:02:55.984Z,10.63
2023-05-04T20:05:25.044Z,10.52
2023-05-04T20:07:52.768Z,10.10
2023-05-04T20:10:21.864Z,9.25
2023-05-04T20:12:49.647Z,10.63
2023-05-04T20:15:17.426Z,10.60
2023-05-04T20:17:45.484Z,11.00
2023-05-04T20:20:19.085Z,12.95
2023-05-04T20:22:49.185Z,13.00
2023-05-04T20:25:17.033Z,11.98
2023-05-04T20:27:45.415Z,12.40
2023-05-04T20:30:13.344Z,10.85
2023-05-04T20:32:41.169Z,15.20
2023-05-04T20:35:09.701Z,11.55
2023-05-04T20:37:38.781Z,12.25
2023-05-04T20:40:09.178Z,11.23
2023-05-04T20:42:38.534Z,12.20
2023-05-04T20:45:07.390Z,11.82
2023-05-04T20:47:37.302Z,11.15
2023-05-04T20:50:05.422Z,14.13
2023-05-04T20:52:33.180Z,18.13
2023-05-04T20:55:01.530Z,12.02
2023-05-04T20:57:30.790Z,15.23
2023-05-04T20:59:58.464Z,14.18
2023-05-04T21:02:26.146Z,11.27
2023-05-04T21:04:53.945Z,11.82
2023-05-04T21:07:21.549Z,13.85
2023-05-04T21:09:49.212Z,14.27
2023-05-04T21:12:17.514Z,13.88
2023-05-04T21:14:46.516Z,15.15
2023-05-04T21:17:14.191Z,13.95
2023-05-04T21:19:41.865Z,17.35
2023-05-04T21:22:09.548Z,15.50
2023-05-04T21:24:37.286Z,12.20
2023-05-04T21:27:05.033Z,18.83
2023-05-04T21:29:34.596Z,14.95
2023-05-04T21:32:03.846Z,11.45
2023-05-04T21:34:31.471Z,14.77
2023-05-04T21:36:59.102Z,10.25
2023-05-04T21:39:27.638Z,15.15
2023-05-04T21:41:55.258Z,10.38
2023-05-04T21:44:23.001Z,9.80
2023-05-04T21:46:50.732Z,7.40
2023-05-04T21:49:19.729Z,5.95
2023-05-04T21:51:47.601Z,3.80
2023-05-04T21:54:15.278Z,2.67
2023-05-04T21:56:42.998Z,2.53
2023-05-04T21:59:10.640Z,1.83
2023-05-04T22:01:38.363Z,3.15
2023-05-04T22:04:06.913Z,2.33
2023-05-04T22:06:36.742Z,3.33
2023-05-04T22:09:05.421Z,4.30
2023-05-04T22:11:33.173Z,1.73
2023-05-04T22:14:00.830Z,1.83
2023-05-04T22:16:28.967Z,2.30
2023-05-04T22:18:56.738Z,3.13
2023-05-04T22:21:24.351Z,1.33
2023-05-04T22:23:53.334Z,1.60
2023-05-04T22:26:21.073Z,1.85
2023-05-04T22:28:48.695Z,3.50
2023-05-04T22:31:16.378Z,3.28
2023-05-04T22:33:44.138Z,3.50
2023-05-04T22:36:12.601Z,3.85
2023-05-04T22:38:42.514Z,4.05
2023-05-04T22:41:11.507Z,8.52
2023-05-04T22:43:39.104Z,4.75
2023-05-04T22:46:06.930Z,4.40
2023-05-04T22:48:34.648Z,4.90
2023-05-04T22:51:02.299Z,6.63
2023-05-04T22:53:29.977Z,4.93
2023-05-04T22:55:57.745Z,7.85
2023-05-04T22:58:27.146Z,7.57
2023-05-04T23:00:54.789Z,6.25
2023-05-04T23:03:22.558Z,7.05
2023-05-04T23:05:50.336Z,7.82
2023-05-04T23:08:17.951Z,8.52
2023-05-04T23:10:46.435Z,9.25
2023-05-04T23:13:14.300Z,9.40
2023-05-04T23:15:43.500Z,5.63
2023-05-04T23:18:11.936Z,8.73
2023-05-04T23:20:39.534Z,8.15
2023-05-04T23:23:07.152Z,10.35
2023-05-04T23:25:34.788Z,8.43
2023-05-04T23:28:02.392Z,11.90
2023-05-04T23:30:30.062Z,9.27
2023-05-04T23:32:59.620Z,13.75
2023-05-04T23:35:28.172Z,11.60
2023-05-04T23:37:56.868Z,9.48
2023-05-04T23:40:24.650Z,5.70
2023-05-04T23:42:54.054Z,5.68
2023-05-04T23:45:21.756Z,5.07
2023-05-04T23:47:49.710Z,6.00
2023-05-04T23:50:18.817Z,6.13
2023-05-04T23:52:46.423Z,5.35
2023-05-04T23:55:14.636Z,5.47
2023-05-04T23:57:44.122Z,5.00
